sensor_id;sensor_type;location;lat;lon;timestamp;temperature;humidity
6672;DHT22;3372;48.690;12.362;2023-08-06T00:00:19;18.20;92.80
6672;DHT22;3372;48.690;12.362;2023-08-06T00:02:45;18.10;93.70
6672;DHT22;3372;48.690;12.362;2023-08-06T00:05:10;17.90;95.10
6672;DHT22;3372;48.690;12.362;2023-08-06T00:07:36;18.00;94.90
6672;DHT22;3372;48.690;12.362;2023-08-06T00:10:01;18.10;94.60
6672;DHT22;3372;48.690;12.362;2023-08-06T00:12:27;18.10;94.70
6672;DHT22;3372;48.690;12.362;2023-08-06T00:14:54;18.20;93.90
6672;DHT22;3372;48.690;12.362;2023-08-06T00:17:19;18.10;94.30
6672;DHT22;3372;48.690;12.362;2023-08-06T00:19:45;18.10;94.40
6672;DHT22;3372;48.690;12.362;2023-08-06T00:22:11;18.20;94.10
6672;DHT22;3372;48.690;12.362;2023-08-06T00:24:36;18.10;94.00
6672;DHT22;3372;48.690;12.362;2023-08-06T00:27:02;18.00;94.20
6672;DHT22;3372;48.690;12.362;2023-08-06T00:29:28;17.80;95.30
6672;DHT22;3372;48.690;12.362;2023-08-06T00:31:54;17.90;94.70
6672;DHT22;3372;48.690;12.362;2023-08-06T00:34:19;17.80;95.30
6672;DHT22;3372;48.690;12.362;2023-08-06T00:36:45;17.80;96.10
6672;DHT22;3372;48.690;12.362;2023-08-06T00:39:11;17.80;95.90
6672;DHT22;3372;48.690;12.362;2023-08-06T00:41:37;17.70;94.20
6672;DHT22;3372;48.690;12.362;2023-08-06T00:44:02;17.60;94.80
6672;DHT22;3372;48.690;12.362;2023-08-06T00:46:28;17.40;95.40
6672;DHT22;3372;48.690;12.362;2023-08-06T00:48:55;17.50;95.10
6672;DHT22;3372;48.690;12.362;2023-08-06T00:51:21;17.60;94.10
6672;DHT22;3372;48.690;12.362;2023-08-06T00:53:49;17.70;93.40
6672;DHT22;3372;48.690;12.362;2023-08-06T00:56:15;17.80;93.00
6672;DHT22;3372;48.690;12.362;2023-08-06T00:58:41;17.70;92.50
6672;DHT22;3372;48.690;12.362;2023-08-06T01:01:07;17.70;92.60
6672;DHT22;3372;48.690;12.362;2023-08-06T01:03:32;17.70;92.20
6672;DHT22;3372;48.690;12.362;2023-08-06T01:05:58;17.70;92.50
6672;DHT22;3372;48.690;12.362;2023-08-06T01:08:46;17.60;92.40
6672;DHT22;3372;48.690;12.362;2023-08-06T01:16:56;17.70;92.30
6672;DHT22;3372;48.690;12.362;2023-08-06T01:19:23;17.70;91.60
6672;DHT22;3372;48.690;12.362;2023-08-06T01:21:49;17.70;91.40
6672;DHT22;3372;48.690;12.362;2023-08-06T01:24:15;17.70;91.30
6672;DHT22;3372;48.690;12.362;2023-08-06T01:26:42;17.70;91.50
6672;DHT22;3372;48.690;12.362;2023-08-06T01:29:17;17.60;90.90
6672;DHT22;3372;48.690;12.362;2023-08-06T01:31:44;17.70;91.30
6672;DHT22;3372;48.690;12.362;2023-08-06T01:34:24;17.70;91.20
6672;DHT22;3372;48.690;12.362;2023-08-06T01:36:51;17.60;91.20
6672;DHT22;3372;48.690;12.362;2023-08-06T01:39:17;17.60;91.40
6672;DHT22;3372;48.690;12.362;2023-08-06T01:41:46;17.60;91.20
6672;DHT22;3372;48.690;12.362;2023-08-06T01:44:12;17.60;90.90
6672;DHT22;3372;48.690;12.362;2023-08-06T01:46:38;17.70;91.10
6672;DHT22;3372;48.690;12.362;2023-08-06T01:49:03;17.50;91.60
6672;DHT22;3372;48.690;12.362;2023-08-06T01:51:29;17.40;92.10
6672;DHT22;3372;48.690;12.362;2023-08-06T01:53:54;17.40;92.70
6672;DHT22;3372;48.690;12.362;2023-08-06T01:56:20;17.50;92.50
6672;DHT22;3372;48.690;12.362;2023-08-06T01:58:46;17.50;92.10
6672;DHT22;3372;48.690;12.362;2023-08-06T02:01:11;17.40;92.40
6672;DHT22;3372;48.690;12.362;2023-08-06T02:03:37;17.40;92.10
6672;DHT22;3372;48.690;12.362;2023-08-06T02:06:02;17.30;92.80
6672;DHT22;3372;48.690;12.362;2023-08-06T02:08:28;17.40;92.60
6672;DHT22;3372;48.690;12.362;2023-08-06T02:10:53;17.30;93.00
6672;DHT22;3372;48.690;12.362;2023-08-06T02:13:19;17.20;92.90
6672;DHT22;3372;48.690;12.362;2023-08-06T02:15:45;17.10;93.70
6672;DHT22;3372;48.690;12.362;2023-08-06T02:18:15;17.00;93.40
6672;DHT22;3372;48.690;12.362;2023-08-06T02:20:41;17.00;93.30
6672;DHT22;3372;48.690;12.362;2023-08-06T02:23:06;16.90;93.60
6672;DHT22;3372;48.690;12.362;2023-08-06T02:25:32;16.80;93.70
6672;DHT22;3372;48.690;12.362;2023-08-06T02:27:58;17.00;93.30
6672;DHT22;3372;48.690;12.362;2023-08-06T02:30:23;17.00;93.00
6672;DHT22;3372;48.690;12.362;2023-08-06T02:32:49;17.00;92.80
6672;DHT22;3372;48.690;12.362;2023-08-06T02:35:15;16.90;93.00
6672;DHT22;3372;48.690;12.362;2023-08-06T02:37:40;16.80;93.30
6672;DHT22;3372;48.690;12.362;2023-08-06T02:40:06;16.60;93.80
6672;DHT22;3372;48.690;12.362;2023-08-06T02:42:32;16.70;93.70
6672;DHT22;3372;48.690;12.362;2023-08-06T02:44:58;16.90;93.30
6672;DHT22;3372;48.690;12.362;2023-08-06T02:47:23;16.80;93.30
6672;DHT22;3372;48.690;12.362;2023-08-06T02:49:49;16.90;93.60
6672;DHT22;3372;48.690;12.362;2023-08-06T02:52:15;16.70;93.20
6672;DHT22;3372;48.690;12.362;2023-08-06T02:54:40;16.70;93.20
6672;DHT22;3372;48.690;12.362;2023-08-06T02:57:06;16.60;93.80
6672;DHT22;3372;48.690;12.362;2023-08-06T02:59:32;16.50;93.90
6672;DHT22;3372;48.690;12.362;2023-08-06T03:01:57;16.50;93.80
6672;DHT22;3372;48.690;12.362;2023-08-06T03:04:23;16.50;94.00
6672;DHT22;3372;48.690;12.362;2023-08-06T03:06:50;16.50;94.00
6672;DHT22;3372;48.690;12.362;2023-08-06T03:09:16;16.40;94.00
6672;DHT22;3372;48.690;12.362;2023-08-06T03:11:42;16.60;93.70
6672;DHT22;3372;48.690;12.362;2023-08-06T03:14:07;16.60;93.50
6672;DHT22;3372;48.690;12.362;2023-08-06T03:16:33;16.40;94.60
6672;DHT22;3372;48.690;12.362;2023-08-06T03:18:59;16.30;95.10
6672;DHT22;3372;48.690;12.362;2023-08-06T03:21:24;16.40;94.80
6672;DHT22;3372;48.690;12.362;2023-08-06T03:23:50;16.50;94.20
6672;DHT22;3372;48.690;12.362;2023-08-06T03:26:16;16.40;94.30
6672;DHT22;3372;48.690;12.362;2023-08-06T03:28:41;16.50;94.20
6672;DHT22;3372;48.690;12.362;2023-08-06T03:31:07;16.60;93.30
6672;DHT22;3372;48.690;12.362;2023-08-06T03:33:33;16.70;93.10
6672;DHT22;3372;48.690;12.362;2023-08-06T03:35:59;16.80;92.60
6672;DHT22;3372;48.690;12.362;2023-08-06T03:38:24;16.80;92.70
6672;DHT22;3372;48.690;12.362;2023-08-06T03:40:50;16.70;92.50
6672;DHT22;3372;48.690;12.362;2023-08-06T03:43:16;16.50;93.40
6672;DHT22;3372;48.690;12.362;2023-08-06T03:45:41;16.40;93.60
6672;DHT22;3372;48.690;12.362;2023-08-06T03:48:08;16.30;93.70
6672;DHT22;3372;48.690;12.362;2023-08-06T03:50:34;16.40;93.90
6672;DHT22;3372;48.690;12.362;2023-08-06T03:53:00;16.60;93.40
6672;DHT22;3372;48.690;12.362;2023-08-06T03:55:25;16.70;93.20
6672;DHT22;3372;48.690;12.362;2023-08-06T03:57:51;16.80;93.30
6672;DHT22;3372;48.690;12.362;2023-08-06T04:00:16;16.80;93.30
6672;DHT22;3372;48.690;12.362;2023-08-06T04:02:42;16.80;92.90
6672;DHT22;3372;48.690;12.362;2023-08-06T04:05:08;16.80;92.20
6672;DHT22;3372;48.690;12.362;2023-08-06T04:07:34;16.80;92.40
6672;DHT22;3372;48.690;12.362;2023-08-06T04:10:01;16.90;92.20
6672;DHT22;3372;48.690;12.362;2023-08-06T04:12:28;16.80;92.70
6672;DHT22;3372;48.690;12.362;2023-08-06T04:14:54;16.90;92.50
6672;DHT22;3372;48.690;12.362;2023-08-06T04:17:20;16.90;92.20
6672;DHT22;3372;48.690;12.362;2023-08-06T04:19:50;16.90;92.10
6672;DHT22;3372;48.690;12.362;2023-08-06T04:22:16;16.90;92.00
6672;DHT22;3372;48.690;12.362;2023-08-06T04:24:42;16.80;91.80
6672;DHT22;3372;48.690;12.362;2023-08-06T04:27:12;16.70;92.00
6672;DHT22;3372;48.690;12.362;2023-08-06T04:29:38;16.70;91.90
6672;DHT22;3372;48.690;12.362;2023-08-06T04:32:06;16.80;91.80
6672;DHT22;3372;48.690;12.362;2023-08-06T04:34:32;16.80;92.00
6672;DHT22;3372;48.690;12.362;2023-08-06T04:36:58;16.80;91.90
6672;DHT22;3372;48.690;12.362;2023-08-06T04:39:24;16.80;92.20
6672;DHT22;3372;48.690;12.362;2023-08-06T04:41:50;16.90;91.60
6672;DHT22;3372;48.690;12.362;2023-08-06T04:44:15;16.90;91.50
6672;DHT22;3372;48.690;12.362;2023-08-06T04:46:41;16.90;91.60
6672;DHT22;3372;48.690;12.362;2023-08-06T04:49:06;16.80;91.80
6672;DHT22;3372;48.690;12.362;2023-08-06T04:51:32;16.60;92.00
6672;DHT22;3372;48.690;12.362;2023-08-06T04:53:58;16.70;92.30
6672;DHT22;3372;48.690;12.362;2023-08-06T04:56:23;16.70;92.00
6672;DHT22;3372;48.690;12.362;2023-08-06T04:58:49;16.70;92.90
6672;DHT22;3372;48.690;12.362;2023-08-06T05:01:15;16.80;92.70
6672;DHT22;3372;48.690;12.362;2023-08-06T05:03:41;16.60;92.60
6672;DHT22;3372;48.690;12.362;2023-08-06T05:06:06;16.70;92.80
6672;DHT22;3372;48.690;12.362;2023-08-06T05:08:32;16.70;92.50
6672;DHT22;3372;48.690;12.362;2023-08-06T05:10:58;16.80;92.10
6672;DHT22;3372;48.690;12.362;2023-08-06T05:13:23;16.80;92.20
6672;DHT22;3372;48.690;12.362;2023-08-06T05:15:50;16.70;92.80
6672;DHT22;3372;48.690;12.362;2023-08-06T05:18:16;16.80;92.90
6672;DHT22;3372;48.690;12.362;2023-08-06T05:20:42;16.90;93.10
6672;DHT22;3372;48.690;12.362;2023-08-06T05:23:08;16.90;93.10
6672;DHT22;3372;48.690;12.362;2023-08-06T05:25:40;16.80;93.30
6672;DHT22;3372;48.690;12.362;2023-08-06T05:28:06;16.90;92.80
6672;DHT22;3372;48.690;12.362;2023-08-06T05:30:32;16.90;93.00
6672;DHT22;3372;48.690;12.362;2023-08-06T05:32:57;16.90;93.00
6672;DHT22;3372;48.690;12.362;2023-08-06T05:35:23;16.90;93.00
6672;DHT22;3372;48.690;12.362;2023-08-06T05:37:51;16.90;92.80
6672;DHT22;3372;48.690;12.362;2023-08-06T05:40:16;16.90;92.40
6672;DHT22;3372;48.690;12.362;2023-08-06T05:42:42;16.90;92.70
6672;DHT22;3372;48.690;12.362;2023-08-06T05:45:08;16.70;93.20
6672;DHT22;3372;48.690;12.362;2023-08-06T05:47:33;16.70;93.30
6672;DHT22;3372;48.690;12.362;2023-08-06T05:49:59;16.60;93.50
6672;DHT22;3372;48.690;12.362;2023-08-06T05:52:25;16.70;93.50
6672;DHT22;3372;48.690;12.362;2023-08-06T05:54:50;16.70;93.20
6672;DHT22;3372;48.690;12.362;2023-08-06T05:57:16;16.90;93.60
6672;DHT22;3372;48.690;12.362;2023-08-06T05:59:42;16.90;93.70
6672;DHT22;3372;48.690;12.362;2023-08-06T06:02:08;16.90;93.30
6672;DHT22;3372;48.690;12.362;2023-08-06T06:04:33;16.90;93.30
6672;DHT22;3372;48.690;12.362;2023-08-06T06:06:59;16.90;93.30
6672;DHT22;3372;48.690;12.362;2023-08-06T06:09:25;17.00;93.70
6672;DHT22;3372;48.690;12.362;2023-08-06T06:11:50;17.00;94.20
6672;DHT22;3372;48.690;12.362;2023-08-06T06:14:19;16.80;94.20
6672;DHT22;3372;48.690;12.362;2023-08-06T06:16:45;16.90;93.90
6672;DHT22;3372;48.690;12.362;2023-08-06T06:19:11;16.80;94.00
6672;DHT22;3372;48.690;12.362;2023-08-06T06:21:38;17.10;93.80
6672;DHT22;3372;48.690;12.362;2023-08-06T06:24:05;17.20;93.70
6672;DHT22;3372;48.690;12.362;2023-08-06T06:26:31;17.00;93.60
6672;DHT22;3372;48.690;12.362;2023-08-06T06:28:58;17.20;94.00
6672;DHT22;3372;48.690;12.362;2023-08-06T06:31:23;17.30;93.60
6672;DHT22;3372;48.690;12.362;2023-08-06T06:33:49;17.10;93.20
6672;DHT22;3372;48.690;12.362;2023-08-06T06:36:15;17.20;93.70
6672;DHT22;3372;48.690;12.362;2023-08-06T06:38:40;17.20;93.90
6672;DHT22;3372;48.690;12.362;2023-08-06T06:41:06;17.30;93.50
6672;DHT22;3372;48.690;12.362;2023-08-06T06:43:32;17.40;93.30
6672;DHT22;3372;48.690;12.362;2023-08-06T06:45:59;17.30;93.50
6672;DHT22;3372;48.690;12.362;2023-08-06T06:48:26;17.20;93.50
6672;DHT22;3372;48.690;12.362;2023-08-06T06:50:52;17.40;93.30
6672;DHT22;3372;48.690;12.362;2023-08-06T06:53:18;17.40;93.70
6672;DHT22;3372;48.690;12.362;2023-08-06T06:55:43;17.40;93.10
6672;DHT22;3372;48.690;12.362;2023-08-06T06:58:09;17.40;93.50
6672;DHT22;3372;48.690;12.362;2023-08-06T07:00:39;17.40;93.50
6672;DHT22;3372;48.690;12.362;2023-08-06T07:03:04;17.40;93.50
6672;DHT22;3372;48.690;12.362;2023-08-06T07:05:30;17.40;93.80
6672;DHT22;3372;48.690;12.362;2023-08-06T07:07:56;17.30;93.10
6672;DHT22;3372;48.690;12.362;2023-08-06T07:10:21;17.20;93.40
6672;DHT22;3372;48.690;12.362;2023-08-06T07:12:47;17.40;93.50
6672;DHT22;3372;48.690;12.362;2023-08-06T07:15:12;17.30;94.20
6672;DHT22;3372;48.690;12.362;2023-08-06T07:17:38;17.40;93.50
6672;DHT22;3372;48.690;12.362;2023-08-06T07:20:04;17.30;93.90
6672;DHT22;3372;48.690;12.362;2023-08-06T07:22:31;17.50;94.30
6672;DHT22;3372;48.690;12.362;2023-08-06T07:24:57;17.70;93.60
6672;DHT22;3372;48.690;12.362;2023-08-06T07:27:24;17.80;93.10
6672;DHT22;3372;48.690;12.362;2023-08-06T07:29:50;17.80;93.40
6672;DHT22;3372;48.690;12.362;2023-08-06T07:32:16;17.80;93.20
6672;DHT22;3372;48.690;12.362;2023-08-06T07:34:41;18.20;91.80
6672;DHT22;3372;48.690;12.362;2023-08-06T07:37:07;18.80;92.20
6672;DHT22;3372;48.690;12.362;2023-08-06T07:39:32;18.90;91.20
6672;DHT22;3372;48.690;12.362;2023-08-06T07:41:58;18.80;90.00
6672;DHT22;3372;48.690;12.362;2023-08-06T07:44:24;19.30;90.10
6672;DHT22;3372;48.690;12.362;2023-08-06T07:46:50;19.60;88.70
6672;DHT22;3372;48.690;12.362;2023-08-06T07:49:15;19.40;81.30
6672;DHT22;3372;48.690;12.362;2023-08-06T07:51:41;19.10;83.80
6672;DHT22;3372;48.690;12.362;2023-08-06T07:54:07;18.90;84.20
6672;DHT22;3372;48.690;12.362;2023-08-06T07:56:33;19.30;83.80
6672;DHT22;3372;48.690;12.362;2023-08-06T07:58:58;19.30;83.10
6672;DHT22;3372;48.690;12.362;2023-08-06T08:01:24;19.50;84.10
6672;DHT22;3372;48.690;12.362;2023-08-06T08:03:49;19.30;73.20
6672;DHT22;3372;48.690;12.362;2023-08-06T08:06:15;20.20;80.60
6672;DHT22;3372;48.690;12.362;2023-08-06T08:08:41;20.00;74.00
6672;DHT22;3372;48.690;12.362;2023-08-06T08:11:06;20.00;64.00
6672;DHT22;3372;48.690;12.362;2023-08-06T08:13:32;19.90;63.60
6672;DHT22;3372;48.690;12.362;2023-08-06T08:15:58;20.10;69.80
6672;DHT22;3372;48.690;12.362;2023-08-06T08:18:24;20.70;73.50
6672;DHT22;3372;48.690;12.362;2023-08-06T08:20:50;20.90;57.00
6672;DHT22;3372;48.690;12.362;2023-08-06T08:23:16;21.20;55.60
6672;DHT22;3372;48.690;12.362;2023-08-06T08:25:42;21.30;65.30
6672;DHT22;3372;48.690;12.362;2023-08-06T08:28:08;21.30;64.00
6672;DHT22;3372;48.690;12.362;2023-08-06T08:30:33;21.50;60.40
6672;DHT22;3372;48.690;12.362;2023-08-06T08:32:59;21.70;54.70
6672;DHT22;3372;48.690;12.362;2023-08-06T08:35:25;21.30;47.70
6672;DHT22;3372;48.690;12.362;2023-08-06T08:37:51;21.80;56.90
6672;DHT22;3372;48.690;12.362;2023-08-06T08:40:17;21.50;51.90
6672;DHT22;3372;48.690;12.362;2023-08-06T08:42:43;21.20;53.50
6672;DHT22;3372;48.690;12.362;2023-08-06T08:45:13;20.20;49.10
6672;DHT22;3372;48.690;12.362;2023-08-06T08:47:43;20.00;58.00
6672;DHT22;3372;48.690;12.362;2023-08-06T08:50:09;19.30;61.10
6672;DHT22;3372;48.690;12.362;2023-08-06T08:52:38;19.60;61.00
6672;DHT22;3372;48.690;12.362;2023-08-06T08:55:04;19.70;61.20
6672;DHT22;3372;48.690;12.362;2023-08-06T08:57:30;19.90;62.40
6672;DHT22;3372;48.690;12.362;2023-08-06T08:59:56;20.20;61.90
6672;DHT22;3372;48.690;12.362;2023-08-06T09:02:23;20.20;54.00
6672;DHT22;3372;48.690;12.362;2023-08-06T09:04:50;20.30;55.40
6672;DHT22;3372;48.690;12.362;2023-08-06T09:07:19;20.20;55.00
6672;DHT22;3372;48.690;12.362;2023-08-06T09:09:49;20.20;50.10
6672;DHT22;3372;48.690;12.362;2023-08-06T09:12:16;20.00;53.80
6672;DHT22;3372;48.690;12.362;2023-08-06T09:14:41;19.40;46.90
6672;DHT22;3372;48.690;12.362;2023-08-06T09:17:07;19.60;55.20
6672;DHT22;3372;48.690;12.362;2023-08-06T09:19:34;19.60;53.30
6672;DHT22;3372;48.690;12.362;2023-08-06T09:22:00;19.50;51.70
6672;DHT22;3372;48.690;12.362;2023-08-06T09:24:25;19.50;50.60
6672;DHT22;3372;48.690;12.362;2023-08-06T09:26:54;19.40;54.80
6672;DHT22;3372;48.690;12.362;2023-08-06T09:29:20;19.40;55.60
6672;DHT22;3372;48.690;12.362;2023-08-06T09:31:47;19.90;55.60
6672;DHT22;3372;48.690;12.362;2023-08-06T09:34:17;20.70;59.40
6672;DHT22;3372;48.690;12.362;2023-08-06T09:36:50;20.80;48.90
6672;DHT22;3372;48.690;12.362;2023-08-06T09:39:31;21.30;47.40
6672;DHT22;3372;48.690;12.362;2023-08-06T09:41:59;21.80;47.10
6672;DHT22;3372;48.690;12.362;2023-08-06T09:44:25;21.60;40.90
6672;DHT22;3372;48.690;12.362;2023-08-06T09:46:54;21.80;39.60
6672;DHT22;3372;48.690;12.362;2023-08-06T09:51:59;20.40;42.80
6672;DHT22;3372;48.690;12.362;2023-08-06T09:54:26;19.30;56.50
6672;DHT22;3372;48.690;12.362;2023-08-06T09:56:53;18.80;57.40
6672;DHT22;3372;48.690;12.362;2023-08-06T09:59:19;18.60;58.70
6672;DHT22;3372;48.690;12.362;2023-08-06T10:01:45;18.50;62.80
6672;DHT22;3372;48.690;12.362;2023-08-06T10:04:12;18.70;63.30
6672;DHT22;3372;48.690;12.362;2023-08-06T10:06:38;18.80;65.60
6672;DHT22;3372;48.690;12.362;2023-08-06T10:09:05;19.00;63.10
6672;DHT22;3372;48.690;12.362;2023-08-06T10:11:30;18.50;66.20
6672;DHT22;3372;48.690;12.362;2023-08-06T10:14:19;18.70;66.90
6672;DHT22;3372;48.690;12.362;2023-08-06T10:16:47;18.70;66.50
6672;DHT22;3372;48.690;12.362;2023-08-06T10:19:13;18.80;64.80
6672;DHT22;3372;48.690;12.362;2023-08-06T10:21:40;18.90;63.10
6672;DHT22;3372;48.690;12.362;2023-08-06T10:24:09;19.10;63.80
6672;DHT22;3372;48.690;12.362;2023-08-06T10:26:40;19.50;63.30
6672;DHT22;3372;48.690;12.362;2023-08-06T10:29:35;19.70;64.40
6672;DHT22;3372;48.690;12.362;2023-08-06T10:32:02;20.10;64.10
6672;DHT22;3372;48.690;12.362;2023-08-06T10:35:00;20.10;62.00
6672;DHT22;3372;48.690;12.362;2023-08-06T10:37:37;20.10;62.90
6672;DHT22;3372;48.690;12.362;2023-08-06T10:40:05;19.50;56.10
6672;DHT22;3372;48.690;12.362;2023-08-06T10:42:31;19.30;60.10
6672;DHT22;3372;48.690;12.362;2023-08-06T10:45:19;19.20;54.90
6672;DHT22;3372;48.690;12.362;2023-08-06T10:47:46;18.80;61.40
6672;DHT22;3372;48.690;12.362;2023-08-06T10:50:16;18.70;59.70
6672;DHT22;3372;48.690;12.362;2023-08-06T10:52:43;19.00;65.90
6672;DHT22;3372;48.690;12.362;2023-08-06T10:55:10;19.30;59.20
6672;DHT22;3372;48.690;12.362;2023-08-06T10:57:36;19.20;59.90
6672;DHT22;3372;48.690;12.362;2023-08-06T11:00:04;19.40;60.50
6672;DHT22;3372;48.690;12.362;2023-08-06T11:02:34;19.10;56.30
6672;DHT22;3372;48.690;12.362;2023-08-06T11:05:05;19.30;60.50
6672;DHT22;3372;48.690;12.362;2023-08-06T11:07:31;19.20;59.10
6672;DHT22;3372;48.690;12.362;2023-08-06T11:10:04;19.00;56.80
6672;DHT22;3372;48.690;12.362;2023-08-06T11:12:34;19.50;58.00
6672;DHT22;3372;48.690;12.362;2023-08-06T11:15:01;19.70;53.80
6672;DHT22;3372;48.690;12.362;2023-08-06T11:17:28;19.70;51.30
6672;DHT22;3372;48.690;12.362;2023-08-06T11:19:54;19.90;53.90
6672;DHT22;3372;48.690;12.362;2023-08-06T11:22:21;19.80;52.60
6672;DHT22;3372;48.690;12.362;2023-08-06T11:24:48;19.80;51.30
6672;DHT22;3372;48.690;12.362;2023-08-06T11:27:15;19.70;52.00
6672;DHT22;3372;48.690;12.362;2023-08-06T11:29:41;19.20;51.20
6672;DHT22;3372;48.690;12.362;2023-08-06T11:32:08;19.20;51.70
6672;DHT22;3372;48.690;12.362;2023-08-06T11:34:34;19.10;51.00
6672;DHT22;3372;48.690;12.362;2023-08-06T11:37:00;18.80;51.20
6672;DHT22;3372;48.690;12.362;2023-08-06T11:39:27;18.60;58.00
6672;DHT22;3372;48.690;12.362;2023-08-06T11:41:53;18.50;57.10
6672;DHT22;3372;48.690;12.362;2023-08-06T11:44:19;18.60;59.10
6672;DHT22;3372;48.690;12.362;2023-08-06T11:46:55;18.40;63.20
6672;DHT22;3372;48.690;12.362;2023-08-06T11:49:46;18.50;62.60
6672;DHT22;3372;48.690;12.362;2023-08-06T11:52:17;18.80;61.10
6672;DHT22;3372;48.690;12.362;2023-08-06T11:54:45;18.90;66.30
6672;DHT22;3372;48.690;12.362;2023-08-06T11:57:11;19.00;68.60
6672;DHT22;3372;48.690;12.362;2023-08-06T11:59:38;18.90;63.70
6672;DHT22;3372;48.690;12.362;2023-08-06T12:02:05;19.00;67.90
6672;DHT22;3372;48.690;12.362;2023-08-06T12:04:57;18.90;66.60
6672;DHT22;3372;48.690;12.362;2023-08-06T12:07:28;18.70;60.80
6672;DHT22;3372;48.690;12.362;2023-08-06T12:09:54;18.80;65.80
6672;DHT22;3372;48.690;12.362;2023-08-06T12:12:20;19.10;65.20
6672;DHT22;3372;48.690;12.362;2023-08-06T12:14:46;19.20;58.60
6672;DHT22;3372;48.690;12.362;2023-08-06T12:17:11;19.40;56.40
6672;DHT22;3372;48.690;12.362;2023-08-06T12:19:37;19.20;60.30
6672;DHT22;3372;48.690;12.362;2023-08-06T12:22:02;19.00;53.70
6672;DHT22;3372;48.690;12.362;2023-08-06T12:24:29;19.00;55.80
6672;DHT22;3372;48.690;12.362;2023-08-06T12:27:00;19.10;56.20
6672;DHT22;3372;48.690;12.362;2023-08-06T12:29:27;18.90;54.20
6672;DHT22;3372;48.690;12.362;2023-08-06T12:31:53;18.90;57.40
6672;DHT22;3372;48.690;12.362;2023-08-06T12:34:19;18.10;65.20
6672;DHT22;3372;48.690;12.362;2023-08-06T12:36:44;17.40;74.80
6672;DHT22;3372;48.690;12.362;2023-08-06T12:39:10;16.90;80.60
6672;DHT22;3372;48.690;12.362;2023-08-06T12:41:36;17.10;85.30
6672;DHT22;3372;48.690;12.362;2023-08-06T12:44:01;17.00;85.10
6672;DHT22;3372;48.690;12.362;2023-08-06T12:46:27;17.00;83.60
6672;DHT22;3372;48.690;12.362;2023-08-06T12:48:52;16.90;81.80
6672;DHT22;3372;48.690;12.362;2023-08-06T12:51:18;17.10;84.00
6672;DHT22;3372;48.690;12.362;2023-08-06T12:53:43;17.30;84.30
6672;DHT22;3372;48.690;12.362;2023-08-06T12:56:09;17.20;84.30
6672;DHT22;3372;48.690;12.362;2023-08-06T12:58:35;17.20;84.20
6672;DHT22;3372;48.690;12.362;2023-08-06T13:01:00;17.40;86.10
6672;DHT22;3372;48.690;12.362;2023-08-06T13:03:26;17.50;86.00
6672;DHT22;3372;48.690;12.362;2023-08-06T13:05:51;17.70;86.50
6672;DHT22;3372;48.690;12.362;2023-08-06T13:08:17;17.80;87.30
6672;DHT22;3372;48.690;12.362;2023-08-06T13:10:43;17.80;91.30
6672;DHT22;3372;48.690;12.362;2023-08-06T13:13:08;17.80;90.80
6672;DHT22;3372;48.690;12.362;2023-08-06T13:15:35;17.80;89.80
6672;DHT22;3372;48.690;12.362;2023-08-06T13:18:01;18.00;90.80
6672;DHT22;3372;48.690;12.362;2023-08-06T13:20:29;18.40;92.10
6672;DHT22;3372;48.690;12.362;2023-08-06T13:22:55;18.50;88.30
6672;DHT22;3372;48.690;12.362;2023-08-06T13:25:21;18.40;82.50
6672;DHT22;3372;48.690;12.362;2023-08-06T13:27:46;18.40;79.30
6672;DHT22;3372;48.690;12.362;2023-08-06T13:30:13;18.30;80.50
6672;DHT22;3372;48.690;12.362;2023-08-06T13:32:38;18.50;80.00
6672;DHT22;3372;48.690;12.362;2023-08-06T13:35:04;18.50;76.20
6672;DHT22;3372;48.690;12.362;2023-08-06T13:37:30;18.30;73.30
6672;DHT22;3372;48.690;12.362;2023-08-06T13:39:56;18.40;76.20
6672;DHT22;3372;48.690;12.362;2023-08-06T13:42:22;18.50;78.70
6672;DHT22;3372;48.690;12.362;2023-08-06T13:44:47;18.30;75.80
6672;DHT22;3372;48.690;12.362;2023-08-06T13:47:13;18.50;74.80
6672;DHT22;3372;48.690;12.362;2023-08-06T13:49:38;18.40;76.80
6672;DHT22;3372;48.690;12.362;2023-08-06T13:52:04;18.40;78.60
6672;DHT22;3372;48.690;12.362;2023-08-06T13:54:30;18.20;78.20
6672;DHT22;3372;48.690;12.362;2023-08-06T13:56:56;18.00;76.60
6672;DHT22;3372;48.690;12.362;2023-08-06T13:59:21;17.90;73.80
6672;DHT22;3372;48.690;12.362;2023-08-06T14:01:50;17.90;74.90
6672;DHT22;3372;48.690;12.362;2023-08-06T14:04:15;17.90;74.10
6672;DHT22;3372;48.690;12.362;2023-08-06T14:06:41;18.10;76.80
6672;DHT22;3372;48.690;12.362;2023-08-06T14:09:07;17.90;75.10
6672;DHT22;3372;48.690;12.362;2023-08-06T14:11:33;18.10;76.70
6672;DHT22;3372;48.690;12.362;2023-08-06T14:13:59;18.20;75.90
6672;DHT22;3372;48.690;12.362;2023-08-06T14:16:25;18.50;73.50
6672;DHT22;3372;48.690;12.362;2023-08-06T14:18:51;18.40;73.00
6672;DHT22;3372;48.690;12.362;2023-08-06T14:21:16;18.30;69.50
6672;DHT22;3372;48.690;12.362;2023-08-06T14:23:42;18.50;76.40
6672;DHT22;3372;48.690;12.362;2023-08-06T14:26:08;18.50;68.20
6672;DHT22;3372;48.690;12.362;2023-08-06T14:28:35;18.40;67.50
6672;DHT22;3372;48.690;12.362;2023-08-06T14:31:02;18.20;68.90
6672;DHT22;3372;48.690;12.362;2023-08-06T14:33:27;18.30;66.70
6672;DHT22;3372;48.690;12.362;2023-08-06T14:35:53;18.20;66.80
6672;DHT22;3372;48.690;12.362;2023-08-06T14:38:18;18.10;65.00
6672;DHT22;3372;48.690;12.362;2023-08-06T14:40:44;17.50;71.60
6672;DHT22;3372;48.690;12.362;2023-08-06T14:43:10;17.70;78.30
6672;DHT22;3372;48.690;12.362;2023-08-06T14:45:39;17.50;77.60
6672;DHT22;3372;48.690;12.362;2023-08-06T14:48:05;17.30;73.90
6672;DHT22;3372;48.690;12.362;2023-08-06T14:50:31;16.90;74.70
6672;DHT22;3372;48.690;12.362;2023-08-06T14:52:56;16.30;77.90
6672;DHT22;3372;48.690;12.362;2023-08-06T14:55:25;16.60;78.60
6672;DHT22;3372;48.690;12.362;2023-08-06T14:57:52;16.70;77.00
6672;DHT22;3372;48.690;12.362;2023-08-06T15:00:18;16.50;79.00
6672;DHT22;3372;48.690;12.362;2023-08-06T15:02:44;16.60;77.80
6672;DHT22;3372;48.690;12.362;2023-08-06T15:05:10;16.20;79.70
6672;DHT22;3372;48.690;12.362;2023-08-06T15:07:35;15.90;84.20
6672;DHT22;3372;48.690;12.362;2023-08-06T15:10:03;16.20;85.00
6672;DHT22;3372;48.690;12.362;2023-08-06T15:12:29;15.80;87.40
6672;DHT22;3372;48.690;12.362;2023-08-06T15:14:55;16.00;89.70
6672;DHT22;3372;48.690;12.362;2023-08-06T15:17:22;16.10;91.10
6672;DHT22;3372;48.690;12.362;2023-08-06T15:19:48;16.30;90.80
6672;DHT22;3372;48.690;12.362;2023-08-06T15:22:14;16.30;90.70
6672;DHT22;3372;48.690;12.362;2023-08-06T15:24:40;16.20;90.90
6672;DHT22;3372;48.690;12.362;2023-08-06T15:27:11;16.50;90.60
6672;DHT22;3372;48.690;12.362;2023-08-06T15:29:37;16.50;89.10
6672;DHT22;3372;48.690;12.362;2023-08-06T15:32:03;16.40;89.50
6672;DHT22;3372;48.690;12.362;2023-08-06T15:34:29;16.30;89.30
6672;DHT22;3372;48.690;12.362;2023-08-06T15:36:54;16.40;86.60
6672;DHT22;3372;48.690;12.362;2023-08-06T15:39:20;16.20;90.70
6672;DHT22;3372;48.690;12.362;2023-08-06T15:41:46;16.10;91.50
6672;DHT22;3372;48.690;12.362;2023-08-06T15:44:12;16.10;91.80
6672;DHT22;3372;48.690;12.362;2023-08-06T15:46:37;16.00;91.60
6672;DHT22;3372;48.690;12.362;2023-08-06T15:49:03;15.80;92.40